createdAt,value
2023-02-14T00:07:35.043Z,99860.25
2023-02-14T00:27:37.884Z,99860.56
2023-02-14T00:47:40.358Z,99844.09
2023-02-14T01:07:42.755Z,99849.47
2023-02-14T01:27:45.395Z,99848.16
2023-02-14T01:47:47.807Z,99828.84
2023-02-14T02:07:50.198Z,99829.38
2023-02-14T02:27:52.665Z,99809.78
2023-02-14T02:47:55.101Z,99814.03
2023-02-14T03:07:57.494Z,99815.19
2023-02-14T03:28:00.000Z,99813.59
2023-02-14T03:48:02.476Z,99807.41
2023-02-14T04:08:04.938Z,99817.09
2023-02-14T04:28:07.358Z,99813.41
2023-02-14T04:48:09.828Z,99818.13
2023-02-14T05:08:12.374Z,99823.16
2023-02-14T05:28:14.824Z,99834.47
2023-02-14T05:48:17.931Z,99838.19
2023-02-14T06:08:20.389Z,99865.44
2023-02-14T06:28:22.915Z,99872.09
2023-02-14T06:48:25.710Z,99889.06
2023-02-14T07:08:28.128Z,99893.91
2023-02-14T07:28:31.554Z,99885.19
2023-02-14T07:48:35.533Z,99901.53
2023-02-14T08:08:37.982Z,99905.03
2023-02-14T08:28:40.445Z,99891.47
2023-02-14T08:48:42.884Z,99910.75
2023-02-14T09:08:45.378Z,99932.78
2023-02-14T09:28:47.877Z,99933.94
2023-02-14T09:48:50.364Z,99937.06
2023-02-14T10:08:53.128Z,99943.81
2023-02-14T10:28:55.540Z,99942.44
2023-02-14T10:48:57.954Z,99937.41
2023-02-14T11:09:00.417Z,99938.72
2023-02-14T11:29:03.568Z,99922.56
2023-02-14T11:49:06.384Z,99906.34
2023-02-14T12:09:09.155Z,99895.78
2023-02-14T12:29:15.868Z,99884.84
2023-02-14T12:49:19.304Z,99853.19
2023-02-14T13:09:21.768Z,99846.25
2023-02-14T13:29:24.848Z,99831.44
2023-02-14T13:49:28.949Z,99816.41
2023-02-14T14:09:31.474Z,99824.00
2023-02-14T14:29:34.759Z,99819.41
2023-02-14T14:49:37.226Z,99809.19
2023-02-14T15:29:47.619Z,99801.19
2023-02-14T15:49:50.091Z,99820.59
2023-02-14T16:09:52.651Z,99832.59
2023-02-14T16:30:02.731Z,99846.13
2023-02-14T16:50:05.490Z,99855.75
2023-02-14T17:10:07.912Z,99866.53
2023-02-14T17:30:10.730Z,99864.75
2023-02-14T17:50:14.352Z,99869.00
2023-02-14T18:10:16.849Z,99859.91
2023-02-14T18:30:19.380Z,99871.91
2023-02-14T18:50:21.844Z,99869.88
2023-02-14T19:10:24.276Z,99867.59
2023-02-14T19:30:26.828Z,99847.75
2023-02-14T19:50:30.815Z,99844.09
2023-02-14T20:10:33.355Z,99839.66
2023-02-14T20:30:35.791Z,99850.94
2023-02-14T20:50:38.286Z,99850.59
2023-02-14T21:10:40.726Z,99847.69
2023-02-14T21:30:43.595Z,99844.25
2023-02-14T21:50:46.039Z,99835.94
2023-02-14T22:10:48.517Z,99816.72
2023-02-14T22:30:50.941Z,99810.25
2023-02-14T22:50:53.721Z,99791.97
2023-02-14T23:10:56.733Z,99790.72
2023-02-14T23:30:59.213Z,99795.22
2023-02-14T23:51:02.268Z,99771.09
